createdAt,value
2022-09-25T00:01:24.514Z,8.88
2022-09-25T00:03:52.496Z,9.18
2022-09-25T00:06:23.830Z,9.20
2022-09-25T00:08:52.329Z,9.22
2022-09-25T00:11:24.162Z,8.96
2022-09-25T00:13:52.819Z,8.67
2022-09-25T00:16:22.576Z,8.88
2022-09-25T00:19:09.664Z,8.95
2022-09-25T00:21:38.876Z,8.85
2022-09-25T00:24:08.600Z,8.98
2022-09-25T00:26:38.764Z,8.91
2022-09-25T00:29:08.291Z,8.79
2022-09-25T00:31:36.429Z,8.80
2022-09-25T00:34:06.924Z,8.79
2022-09-25T00:36:35.670Z,8.77
2022-09-25T00:39:03.993Z,8.80
2022-09-25T00:41:32.632Z,8.81
2022-09-25T00:44:02.307Z,8.73
2022-09-25T00:46:35.015Z,8.75
2022-09-25T00:49:08.113Z,8.78
2022-09-25T00:51:43.477Z,8.67
2022-09-25T00:54:15.940Z,8.61
2022-09-25T00:56:46.964Z,8.55
2022-09-25T00:59:19.841Z,8.52
2022-09-25T01:01:48.582Z,8.62
2022-09-25T01:04:18.588Z,8.72
2022-09-25T01:06:46.549Z,8.69
2022-09-25T01:09:14.376Z,8.50
2022-09-25T01:11:42.206Z,8.46
2022-09-25T01:14:11.100Z,8.34
2022-09-25T01:16:46.810Z,8.29
2022-09-25T01:19:27.666Z,8.10
2022-09-25T01:22:02.061Z,8.19
2022-09-25T01:24:43.955Z,8.14
2022-09-25T01:27:34.148Z,8.14
2022-09-25T01:30:10.033Z,8.01
2022-09-25T01:32:45.839Z,8.19
2022-09-25T01:35:19.393Z,8.18
2022-09-25T01:37:53.996Z,8.15
2022-09-25T01:40:27.716Z,8.11
2022-09-25T01:43:01.656Z,8.17
2022-09-25T01:45:38.088Z,8.16
2022-09-25T01:48:09.796Z,8.02
2022-09-25T01:50:44.492Z,8.02
2022-09-25T01:53:17.453Z,8.02
2022-09-25T01:55:49.339Z,8.02
2022-09-25T01:58:25.228Z,7.94
2022-09-25T02:01:00.162Z,7.94
2022-09-25T02:03:32.885Z,7.98
2022-09-25T02:06:03.355Z,8.04
2022-09-25T02:08:36.244Z,8.02
2022-09-25T02:11:06.727Z,8.07
2022-09-25T02:13:40.189Z,8.07
2022-09-25T02:16:13.740Z,8.04
2022-09-25T02:18:59.429Z,7.94
2022-09-25T02:21:33.720Z,8.09
2022-09-25T02:24:10.133Z,8.06
2022-09-25T02:26:38.671Z,8.09
2022-09-25T02:29:08.752Z,7.78
2022-09-25T02:31:41.580Z,7.92
2022-09-25T02:34:14.570Z,7.73
2022-09-25T02:36:44.918Z,7.60
2022-09-25T02:39:17.039Z,7.54
2022-09-25T02:42:03.506Z,7.21
2022-09-25T02:44:41.240Z,7.32
2022-09-25T02:47:24.053Z,7.07
2022-09-25T02:50:01.026Z,7.11
2022-09-25T02:52:36.208Z,7.15
2022-09-25T02:55:10.709Z,7.31
2022-09-25T02:57:47.179Z,7.25
2022-09-25T03:00:16.106Z,7.33
2022-09-25T03:02:52.105Z,7.39
2022-09-25T03:05:21.589Z,7.45
2022-09-25T03:08:07.302Z,7.45
2022-09-25T03:10:37.940Z,7.44
2022-09-25T03:13:19.747Z,7.47
2022-09-25T03:15:52.458Z,7.39
2022-09-25T03:18:21.959Z,7.46
2022-09-25T03:20:49.835Z,7.41
2022-09-25T03:23:17.644Z,7.36
2022-09-25T03:25:49.876Z,7.27
2022-09-25T03:28:18.266Z,7.31
2022-09-25T03:30:55.878Z,7.36
2022-09-25T03:33:25.225Z,7.46
2022-09-25T03:36:02.062Z,7.38
2022-09-25T03:38:29.898Z,7.59
2022-09-25T03:40:57.776Z,7.37
2022-09-25T03:43:25.652Z,7.56
2022-09-25T03:45:53.546Z,6.93
2022-09-25T03:48:21.781Z,7.38
2022-09-25T03:50:50.988Z,7.37
2022-09-25T03:53:19.343Z,7.17
2022-09-25T03:55:48.616Z,7.36
2022-09-25T03:58:16.915Z,7.03
2022-09-25T04:00:46.953Z,7.15
2022-09-25T04:03:15.157Z,7.07
2022-09-25T04:05:43.244Z,7.12
2022-09-25T04:08:12.439Z,7.10
2022-09-25T04:10:40.420Z,6.98
2022-09-25T04:13:09.216Z,6.92
2022-09-25T04:15:37.028Z,6.90
2022-09-25T04:18:06.260Z,6.80
2022-09-25T04:20:34.289Z,6.48
2022-09-25T04:23:02.156Z,6.92
2022-09-25T04:25:31.421Z,7.24
2022-09-25T04:27:59.481Z,7.23
2022-09-25T04:30:28.851Z,7.81
2022-09-25T04:33:14.844Z,8.07
2022-09-25T04:35:42.833Z,8.42
2022-09-25T04:38:10.852Z,8.79
2022-09-25T04:40:40.238Z,8.74
2022-09-25T04:43:08.508Z,8.53
2022-09-25T04:45:37.937Z,8.44
2022-09-25T04:48:06.268Z,8.54
2022-09-25T04:50:34.767Z,8.63
2022-09-25T04:53:03.019Z,8.63
2022-09-25T04:55:30.874Z,8.63
2022-09-25T04:58:01.588Z,8.91
2022-09-25T05:00:31.933Z,9.36
2022-09-25T05:03:00.190Z,10.07
2022-09-25T05:05:30.526Z,9.83
2022-09-25T05:08:01.551Z,10.21
2022-09-25T05:10:31.578Z,10.59
2022-09-25T05:13:02.233Z,10.56
2022-09-25T05:15:31.724Z,10.93
2022-09-25T05:18:03.487Z,11.38
2022-09-25T05:20:31.409Z,11.51
2022-09-25T05:22:59.811Z,11.60
2022-09-25T05:25:28.281Z,12.10
2022-09-25T05:27:58.477Z,11.97
2022-09-25T05:30:29.246Z,12.24
2022-09-25T05:32:59.215Z,12.04
2022-09-25T05:35:28.353Z,12.14
2022-09-25T05:37:56.514Z,12.54
2022-09-25T05:40:25.235Z,12.83
2022-09-25T05:42:53.966Z,12.95
2022-09-25T05:45:23.078Z,13.13
2022-09-25T05:48:01.416Z,13.09
2022-09-25T05:50:29.563Z,13.47
2022-09-25T05:52:58.168Z,13.60
2022-09-25T05:55:26.379Z,13.80
2022-09-25T05:57:54.268Z,13.34
2022-09-25T06:00:22.183Z,12.79
2022-09-25T06:02:54.129Z,13.30
2022-09-25T06:05:21.994Z,13.74
2022-09-25T06:07:54.437Z,14.32
2022-09-25T06:10:22.529Z,14.19
2022-09-25T06:12:50.456Z,14.40
2022-09-25T06:15:18.328Z,14.82
2022-09-25T06:17:46.152Z,14.77
2022-09-25T06:20:16.497Z,15.14
2022-09-25T06:22:44.949Z,15.17
2022-09-25T06:25:15.381Z,15.26
2022-09-25T06:27:43.240Z,14.98
2022-09-25T06:30:11.921Z,14.96
2022-09-25T06:32:39.756Z,15.20
2022-09-25T06:35:07.903Z,15.66
2022-09-25T06:37:37.114Z,16.32
2022-09-25T06:40:05.466Z,17.08
2022-09-25T06:42:35.253Z,17.24
2022-09-25T06:45:03.110Z,17.32
2022-09-25T06:47:30.940Z,17.25
2022-09-25T06:49:59.934Z,17.11
2022-09-25T06:52:27.778Z,17.08
2022-09-25T06:54:57.592Z,17.36
2022-09-25T06:57:25.434Z,17.72
2022-09-25T06:59:53.248Z,18.09
2022-09-25T07:02:50.248Z,17.80
2022-09-25T07:05:19.437Z,17.44
2022-09-25T07:07:47.309Z,17.50
2022-09-25T07:10:17.204Z,18.20
2022-09-25T07:12:45.098Z,18.92
2022-09-25T07:15:12.954Z,19.35
2022-09-25T07:17:43.060Z,19.05
2022-09-25T07:20:12.672Z,18.69
2022-09-25T07:22:40.627Z,18.99
2022-09-25T07:25:10.478Z,18.77
2022-09-25T07:27:39.901Z,18.56
2022-09-25T07:30:10.595Z,18.76
2022-09-25T07:32:38.423Z,18.41
2022-09-25T07:35:06.785Z,18.01
2022-09-25T07:37:34.610Z,18.76
2022-09-25T07:40:02.848Z,19.92
2022-09-25T07:42:31.634Z,19.58
2022-09-25T07:45:00.822Z,19.12
2022-09-25T07:47:28.708Z,19.36
2022-09-25T07:49:56.575Z,19.89
2022-09-25T07:52:24.448Z,19.61
2022-09-25T07:54:52.306Z,19.49
2022-09-25T07:57:20.613Z,19.63
2022-09-25T07:59:48.504Z,19.43
2022-09-25T08:02:17.863Z,19.77
2022-09-25T08:04:45.889Z,20.16
2022-09-25T08:07:13.719Z,20.59
2022-09-25T08:09:41.841Z,20.94
2022-09-25T08:12:12.924Z,20.74
2022-09-25T08:14:41.823Z,21.06
2022-09-25T08:17:09.640Z,20.99
2022-09-25T08:19:38.868Z,19.85
2022-09-25T08:22:06.699Z,20.14
2022-09-25T08:24:34.506Z,20.75
2022-09-25T08:27:02.361Z,21.08
2022-09-25T08:29:30.932Z,21.27
2022-09-25T08:31:58.818Z,20.81
2022-09-25T08:34:42.888Z,21.10
2022-09-25T08:37:12.406Z,21.06
2022-09-25T08:39:40.228Z,21.24
2022-09-25T08:42:11.796Z,21.16
2022-09-25T08:44:56.936Z,21.31
2022-09-25T08:47:48.247Z,20.68
2022-09-25T08:50:20.431Z,21.49
2022-09-25T08:52:53.768Z,21.86
2022-09-25T08:55:46.905Z,22.04
2022-09-25T08:58:22.074Z,22.40
2022-09-25T09:00:50.491Z,22.91
2022-09-25T09:03:18.893Z,23.15
2022-09-25T09:05:51.697Z,22.73
2022-09-25T09:08:26.067Z,22.59
2022-09-25T09:10:58.863Z,22.43
2022-09-25T09:13:29.949Z,22.62
2022-09-25T09:16:04.133Z,23.26
2022-09-25T09:18:33.547Z,23.66
2022-09-25T09:21:10.372Z,22.71
2022-09-25T09:23:50.847Z,22.95
2022-09-25T09:26:27.114Z,23.03
2022-09-25T09:29:21.533Z,23.27
2022-09-25T09:31:59.192Z,23.74
2022-09-25T09:37:46.938Z,22.62
2022-09-25T09:40:50.694Z,22.52
2022-09-25T09:43:31.638Z,22.74
2022-09-25T09:46:06.500Z,23.64
2022-09-25T09:48:41.019Z,24.75
2022-09-25T09:51:13.764Z,25.33
2022-09-25T09:53:47.768Z,25.45
2022-09-25T09:56:21.118Z,24.21
2022-09-25T09:58:54.331Z,23.79
2022-09-25T10:01:42.054Z,23.82
2022-09-25T10:04:12.580Z,24.54
2022-09-25T10:06:45.015Z,25.46
2022-09-25T10:09:16.591Z,25.29
2022-09-25T10:11:47.993Z,25.70
2022-09-25T10:14:21.079Z,25.97
2022-09-25T10:16:51.585Z,25.64
2022-09-25T10:19:22.396Z,25.40
2022-09-25T10:21:54.830Z,25.43
2022-09-25T10:24:51.861Z,25.84
2022-09-25T10:27:33.359Z,25.77
2022-09-25T10:30:20.395Z,25.23
2022-09-25T10:32:58.223Z,25.40
2022-09-25T10:35:29.792Z,25.61
2022-09-25T10:37:59.421Z,25.84
2022-09-25T10:40:31.712Z,26.30
2022-09-25T10:43:17.199Z,26.44
2022-09-25T10:45:45.941Z,26.26
2022-09-25T10:48:45.736Z,26.51
2022-09-25T10:51:17.306Z,26.43
2022-09-25T10:53:46.573Z,27.01
2022-09-25T10:56:18.730Z,26.75
2022-09-25T10:58:52.728Z,27.27
2022-09-25T11:01:20.953Z,27.12
2022-09-25T11:03:53.498Z,26.55
2022-09-25T11:06:25.836Z,26.72
2022-09-25T11:09:05.755Z,27.32
2022-09-25T11:11:33.608Z,27.07
2022-09-25T11:14:05.809Z,26.47
2022-09-25T11:16:48.039Z,26.47
2022-09-25T11:19:21.134Z,27.12
2022-09-25T11:22:00.109Z,27.58
2022-09-25T11:24:37.501Z,28.06
2022-09-25T11:27:12.984Z,27.85
2022-09-25T11:29:49.886Z,27.91
2022-09-25T11:32:25.381Z,27.34
2022-09-25T11:35:17.103Z,27.04
2022-09-25T11:37:53.696Z,27.01
2022-09-25T11:40:51.471Z,27.71
2022-09-25T11:43:31.454Z,28.14
2022-09-25T11:46:08.293Z,26.96
2022-09-25T11:48:44.113Z,27.60
2022-09-25T11:51:24.945Z,27.58
2022-09-25T11:54:18.243Z,27.73
2022-09-25T11:56:57.667Z,28.00
2022-09-25T11:59:39.215Z,27.83
2022-09-25T12:02:21.438Z,27.17
2022-09-25T12:05:15.705Z,28.12
2022-09-25T12:07:58.103Z,28.57
2022-09-25T12:10:42.974Z,28.31
2022-09-25T12:13:20.760Z,28.21
2022-09-25T12:15:59.237Z,27.12
2022-09-25T12:18:53.389Z,26.62
2022-09-25T12:21:33.965Z,26.32
2022-09-25T12:24:10.283Z,26.29
2022-09-25T12:26:52.640Z,26.06
2022-09-25T12:29:33.448Z,26.99
2022-09-25T12:32:08.908Z,26.52
2022-09-25T12:34:55.753Z,27.08
2022-09-25T12:37:38.638Z,26.93
2022-09-25T12:40:16.321Z,26.46
2022-09-25T12:42:47.968Z,26.08
2022-09-25T12:45:21.286Z,26.04
2022-09-25T12:48:02.559Z,26.01
2022-09-25T12:50:38.424Z,26.52
2022-09-25T12:53:19.617Z,26.12
2022-09-25T12:55:53.984Z,26.29
2022-09-25T12:58:28.745Z,25.57
2022-09-25T13:01:03.096Z,25.72
2022-09-25T13:03:41.077Z,25.29
2022-09-25T13:06:15.304Z,24.74
2022-09-25T13:08:51.712Z,24.18
2022-09-25T13:11:39.137Z,23.97
2022-09-25T13:14:13.155Z,24.21
2022-09-25T13:16:41.067Z,24.53
2022-09-25T13:19:23.690Z,24.69
2022-09-25T13:22:00.159Z,24.44
2022-09-25T13:24:28.213Z,24.65
2022-09-25T13:27:06.535Z,24.72
2022-09-25T13:29:38.991Z,24.25
2022-09-25T13:32:14.077Z,23.89
2022-09-25T13:34:43.444Z,23.90
2022-09-25T13:37:14.391Z,23.80
2022-09-25T13:40:04.066Z,24.31
2022-09-25T13:42:37.472Z,24.54
2022-09-25T13:45:34.349Z,24.10
2022-09-25T13:48:07.919Z,23.97
2022-09-25T13:50:44.339Z,23.85
2022-09-25T13:53:26.094Z,23.97
2022-09-25T13:56:27.157Z,23.84
2022-09-25T13:59:23.331Z,24.13
2022-09-25T14:02:38.173Z,24.17
2022-09-25T14:05:07.598Z,23.96
2022-09-25T14:07:36.090Z,24.23
2022-09-25T14:10:10.936Z,24.27
2022-09-25T14:12:44.524Z,24.14
2022-09-25T14:15:23.066Z,24.14
2022-09-25T14:17:53.599Z,24.06
2022-09-25T14:20:32.138Z,24.08
2022-09-25T14:23:02.691Z,23.99
2022-09-25T14:25:35.093Z,23.42
2022-09-25T14:28:04.664Z,23.89
2022-09-25T14:30:33.207Z,24.10
2022-09-25T14:33:15.893Z,24.31
2022-09-25T14:35:55.012Z,24.43
2022-09-25T14:38:52.040Z,24.21
2022-09-25T14:41:46.630Z,23.94
2022-09-25T14:44:31.249Z,24.35
2022-09-25T14:46:59.752Z,24.48
2022-09-25T14:49:31.148Z,24.28
2022-09-25T14:52:02.604Z,24.23
2022-09-25T14:54:38.073Z,24.14
2022-09-25T14:57:10.972Z,23.93
2022-09-25T14:59:42.395Z,23.55
2022-09-25T15:02:19.737Z,23.67
2022-09-25T15:04:47.687Z,23.62
2022-09-25T15:07:17.871Z,23.52
2022-09-25T15:09:48.384Z,23.33
2022-09-25T15:12:21.206Z,22.99
2022-09-25T15:14:59.709Z,22.86
2022-09-25T15:17:28.733Z,23.11
2022-09-25T15:19:59.115Z,23.04
2022-09-25T15:22:32.851Z,22.99
2022-09-25T15:25:03.537Z,22.79
2022-09-25T15:27:33.712Z,22.77
2022-09-25T15:30:02.990Z,22.74
2022-09-25T15:32:39.426Z,22.76
2022-09-25T15:35:15.945Z,22.72
2022-09-25T15:37:44.316Z,22.68
2022-09-25T15:40:25.794Z,22.59
2022-09-25T15:42:55.745Z,22.41
2022-09-25T15:45:40.836Z,22.49
2022-09-25T15:48:21.980Z,22.40
2022-09-25T15:50:50.085Z,22.30
2022-09-25T15:53:28.705Z,22.24
2022-09-25T15:56:06.981Z,22.07
2022-09-25T15:58:45.905Z,22.03
2022-09-25T16:01:34.537Z,21.73
2022-09-25T16:04:20.710Z,21.80
2022-09-25T16:06:49.996Z,21.69
2022-09-25T16:09:24.675Z,21.69
2022-09-25T16:11:52.546Z,21.64
2022-09-25T16:14:29.233Z,21.51
2022-09-25T16:17:00.050Z,21.39
2022-09-25T16:19:34.172Z,21.43
2022-09-25T16:22:16.741Z,21.23
2022-09-25T16:24:51.958Z,21.37
2022-09-25T16:27:33.960Z,21.30
2022-09-25T16:30:04.590Z,21.16
2022-09-25T16:32:33.193Z,21.17
2022-09-25T16:35:03.497Z,20.73
2022-09-25T16:37:35.181Z,21.03
2022-09-25T16:40:20.119Z,20.97
2022-09-25T16:42:48.547Z,20.85
2022-09-25T16:45:20.587Z,20.36
2022-09-25T16:47:49.620Z,20.52
2022-09-25T16:50:19.026Z,20.41
2022-09-25T16:52:47.745Z,20.40
2022-09-25T16:55:19.475Z,20.34
2022-09-25T16:57:47.327Z,20.28
2022-09-25T17:00:18.577Z,20.19
2022-09-25T17:02:47.557Z,20.10
2022-09-25T17:05:19.528Z,20.06
2022-09-25T17:07:49.026Z,19.83
2022-09-25T17:10:20.545Z,19.86
2022-09-25T17:12:53.660Z,19.75
2022-09-25T17:15:27.577Z,19.63
2022-09-25T17:17:55.475Z,19.44
2022-09-25T17:20:24.436Z,19.47
2022-09-25T17:22:52.884Z,19.39
2022-09-25T17:25:30.904Z,19.26
2022-09-25T17:27:59.017Z,18.40
2022-09-25T17:30:28.345Z,19.07
2022-09-25T17:32:56.260Z,19.51
2022-09-25T17:35:41.414Z,19.40
2022-09-25T17:38:09.967Z,19.50
2022-09-25T17:40:37.896Z,19.43
2022-09-25T17:43:05.744Z,19.49
2022-09-25T17:45:39.221Z,19.40
2022-09-25T17:48:07.120Z,19.49
2022-09-25T17:50:35.688Z,19.48
2022-09-25T17:53:05.067Z,19.38
2022-09-25T17:55:34.149Z,19.45
2022-09-25T17:58:01.976Z,19.23
2022-09-25T18:00:29.812Z,19.20
2022-09-25T18:02:59.095Z,19.18
2022-09-25T18:05:29.570Z,18.95
2022-09-25T18:07:57.413Z,18.42
2022-09-25T18:10:28.951Z,18.56
2022-09-25T18:12:57.034Z,18.37
2022-09-25T18:15:24.902Z,18.22
2022-09-25T18:17:52.939Z,18.17
2022-09-25T18:20:40.019Z,18.10
2022-09-25T18:23:07.845Z,18.03
2022-09-25T18:25:40.081Z,17.43
2022-09-25T18:28:08.154Z,17.71
2022-09-25T18:30:38.117Z,17.37
2022-09-25T18:33:06.290Z,17.38
2022-09-25T18:35:35.604Z,17.40
2022-09-25T18:38:03.471Z,17.28
2022-09-25T18:40:31.350Z,17.22
2022-09-25T18:43:01.458Z,17.01
2022-09-25T18:45:29.618Z,17.05
2022-09-25T18:47:57.963Z,16.48
2022-09-25T18:50:28.796Z,16.57
2022-09-25T18:52:58.028Z,16.73
2022-09-25T18:55:26.326Z,16.60
2022-09-25T18:57:54.183Z,16.52
2022-09-25T19:00:22.177Z,16.55
2022-09-25T19:02:50.117Z,16.55
2022-09-25T19:05:18.169Z,16.30
2022-09-25T19:07:46.000Z,16.40
2022-09-25T19:10:15.274Z,16.10
2022-09-25T19:12:44.891Z,16.15
2022-09-25T19:15:13.117Z,16.08
2022-09-25T19:17:41.195Z,15.97
2022-09-25T19:20:10.090Z,15.89
2022-09-25T19:22:38.142Z,16.08
2022-09-25T19:25:06.815Z,16.06
2022-09-25T19:27:36.117Z,15.99
2022-09-25T19:30:04.412Z,15.96
2022-09-25T19:32:32.237Z,15.85
2022-09-25T19:35:00.593Z,15.73
2022-09-25T19:37:32.735Z,15.64
2022-09-25T19:40:18.709Z,15.56
2022-09-25T19:42:48.902Z,15.44
2022-09-25T19:45:16.897Z,14.24
2022-09-25T19:47:44.725Z,15.41
2022-09-25T19:50:12.889Z,15.32
2022-09-25T19:52:40.753Z,14.97
2022-09-25T19:55:09.203Z,14.83
2022-09-25T19:57:37.045Z,14.90
2022-09-25T20:00:07.689Z,14.91
2022-09-25T20:02:35.861Z,14.96
2022-09-25T20:05:04.006Z,14.54
2022-09-25T20:07:31.880Z,14.71
2022-09-25T20:09:59.684Z,14.95
2022-09-25T20:12:27.520Z,14.81
2022-09-25T20:14:55.381Z,14.87
2022-09-25T20:17:24.614Z,14.91
2022-09-25T20:19:52.466Z,14.80
2022-09-25T20:22:20.312Z,14.96
2022-09-25T20:24:48.228Z,14.82
2022-09-25T20:27:19.748Z,14.89
2022-09-25T20:29:50.272Z,14.77
2022-09-25T20:32:18.130Z,14.65
2022-09-25T20:34:47.454Z,14.59
2022-09-25T20:37:15.288Z,14.31
2022-09-25T20:39:43.976Z,14.24
2022-09-25T20:42:11.841Z,14.12
2022-09-25T20:44:39.686Z,14.03
2022-09-25T20:47:07.508Z,13.90
2022-09-25T20:49:35.396Z,13.83
2022-09-25T20:52:05.041Z,13.82
2022-09-25T20:54:33.344Z,13.75
2022-09-25T20:57:01.155Z,13.65
2022-09-25T20:59:28.981Z,13.33
2022-09-25T21:01:56.882Z,13.45
2022-09-25T21:04:24.741Z,13.51
2022-09-25T21:06:52.573Z,13.59
2022-09-25T21:09:23.641Z,13.50
2022-09-25T21:11:51.574Z,13.51
2022-09-25T21:14:22.151Z,13.48
2022-09-25T21:16:50.983Z,13.37
2022-09-25T21:19:20.922Z,13.38
2022-09-25T21:21:49.525Z,13.42
2022-09-25T21:24:19.002Z,13.37
2022-09-25T21:26:48.708Z,13.30
2022-09-25T21:29:17.383Z,13.16
2022-09-25T21:31:49.787Z,13.29
2022-09-25T21:34:19.368Z,13.31
2022-09-25T21:36:47.736Z,13.09
2022-09-25T21:39:16.089Z,13.08
2022-09-25T21:41:44.138Z,13.33
2022-09-25T21:44:15.516Z,13.38
2022-09-25T21:46:43.952Z,12.91
2022-09-25T21:49:16.423Z,13.05
2022-09-25T21:51:45.336Z,12.76
2022-09-25T21:54:13.829Z,12.98
2022-09-25T21:56:41.924Z,13.00
2022-09-25T21:59:09.955Z,13.02
2022-09-25T22:01:40.138Z,12.89
2022-09-25T22:04:09.539Z,13.05
2022-09-25T22:06:39.842Z,12.98
2022-09-25T22:09:09.597Z,12.76
2022-09-25T22:11:38.325Z,12.70
2022-09-25T22:14:07.517Z,12.40
2022-09-25T22:16:39.990Z,12.32
2022-09-25T22:19:09.856Z,11.96
2022-09-25T22:21:39.059Z,12.34
2022-09-25T22:24:07.808Z,12.36
2022-09-25T22:26:37.288Z,12.11
2022-09-25T22:29:05.908Z,12.37
2022-09-25T22:31:35.231Z,12.06
2022-09-25T22:34:07.030Z,12.33
2022-09-25T22:36:36.885Z,12.33
2022-09-25T22:39:05.678Z,12.28
2022-09-25T22:41:33.964Z,12.19
2022-09-25T22:44:03.313Z,11.90
2022-09-25T22:46:31.485Z,12.12
2022-09-25T22:48:59.421Z,11.78
2022-09-25T22:51:28.943Z,12.03
2022-09-25T22:53:56.772Z,12.00
2022-09-25T22:56:27.107Z,11.88
2022-09-25T22:58:57.369Z,12.02
2022-09-25T23:01:28.612Z,11.81
2022-09-25T23:03:57.775Z,11.80
2022-09-25T23:06:26.749Z,11.97
2022-09-25T23:08:57.497Z,11.89
2022-09-25T23:11:26.429Z,11.92
2022-09-25T23:13:58.665Z,11.39
2022-09-25T23:16:27.419Z,11.92
2022-09-25T23:18:57.073Z,11.81
2022-09-25T23:21:25.183Z,11.77
2022-09-25T23:23:57.765Z,11.63
2022-09-25T23:26:26.232Z,11.26
2022-09-25T23:28:54.347Z,11.50
2022-09-25T23:31:22.875Z,11.78
2022-09-25T23:33:50.736Z,11.75
2022-09-25T23:36:20.610Z,11.63
2022-09-25T23:38:49.256Z,11.69
2022-09-25T23:41:20.004Z,11.52
2022-09-25T23:43:49.361Z,11.67
2022-09-25T23:46:18.601Z,11.30
2022-09-25T23:48:47.073Z,11.19
2022-09-25T23:51:16.029Z,11.63
2022-09-25T23:53:44.780Z,11.66
2022-09-25T23:56:14.421Z,11.67
2022-09-25T23:58:44.420Z,11.46
